createdAt,value
2022-10-31T00:01:39.327Z,72.87
2022-10-31T00:04:07.391Z,82.12
2022-10-31T00:06:34.909Z,83.45
2022-10-31T00:09:04.353Z,69.87
2022-10-31T00:11:32.101Z,68.97
2022-10-31T00:14:00.329Z,72.80
2022-10-31T00:16:28.939Z,69.93
2022-10-31T00:18:58.856Z,61.33
2022-10-31T00:21:26.821Z,65.85
2022-10-31T00:23:54.263Z,64.33
2022-10-31T00:26:22.000Z,61.08
2022-10-31T00:28:50.122Z,65.97
2022-10-31T00:31:17.853Z,69.87
2022-10-31T00:33:45.826Z,72.00
2022-10-31T00:36:15.398Z,66.17
2022-10-31T00:38:43.554Z,68.62
2022-10-31T00:41:12.547Z,65.95
2022-10-31T00:43:42.314Z,68.00
2022-10-31T00:46:10.936Z,71.60
2022-10-31T00:48:38.662Z,74.17
2022-10-31T00:51:06.355Z,67.85
2022-10-31T00:53:33.854Z,68.18
2022-10-31T00:56:02.077Z,67.82
2022-10-31T00:58:29.556Z,65.85
2022-10-31T01:00:57.095Z,72.60
2022-10-31T01:03:30.468Z,71.68
2022-10-31T01:06:09.144Z,64.65
2022-10-31T01:08:37.969Z,69.93
2022-10-31T01:11:17.847Z,65.57
2022-10-31T01:13:45.965Z,64.77
2022-10-31T01:16:16.133Z,70.15
2022-10-31T01:18:43.619Z,72.37
2022-10-31T01:21:17.329Z,66.57
2022-10-31T01:23:45.010Z,60.00
2022-10-31T01:26:16.333Z,64.77
2022-10-31T01:28:51.605Z,64.75
2022-10-31T01:31:20.498Z,64.15
2022-10-31T01:33:48.213Z,62.42
2022-10-31T01:36:38.967Z,58.78
2022-10-31T01:39:09.626Z,59.27
2022-10-31T01:41:41.192Z,62.50
2022-10-31T01:44:15.041Z,58.90
2022-10-31T01:46:53.751Z,64.07
2022-10-31T01:49:26.091Z,57.58
2022-10-31T01:52:01.977Z,56.37
2022-10-31T01:54:33.288Z,55.25
2022-10-31T01:57:01.066Z,56.17
2022-10-31T01:59:30.516Z,57.65
2022-10-31T02:01:58.595Z,59.22
2022-10-31T02:04:28.000Z,58.47
2022-10-31T02:06:59.480Z,56.67
2022-10-31T02:09:27.576Z,58.38
2022-10-31T02:11:57.598Z,53.40
2022-10-31T02:14:26.971Z,61.47
2022-10-31T02:16:55.322Z,58.47
2022-10-31T02:19:41.756Z,53.90
2022-10-31T02:22:20.958Z,59.22
2022-10-31T02:24:57.422Z,49.25
2022-10-31T02:27:46.781Z,54.63
2022-10-31T02:30:17.509Z,49.27
2022-10-31T02:33:44.102Z,50.65
2022-10-31T02:36:35.922Z,51.97
2022-10-31T02:39:14.609Z,51.92
2022-10-31T02:42:07.014Z,46.10
2022-10-31T02:44:50.132Z,46.50
2022-10-31T02:47:20.204Z,52.33
2022-10-31T02:49:58.675Z,49.42
2022-10-31T02:52:28.630Z,47.33
2022-10-31T02:54:59.904Z,50.50
2022-10-31T02:57:32.799Z,51.10
2022-10-31T03:00:06.965Z,44.72
2022-10-31T03:02:52.887Z,49.70
2022-10-31T03:05:38.652Z,50.95
2022-10-31T03:08:11.956Z,49.83
2022-10-31T03:10:48.090Z,52.57
2022-10-31T03:13:30.791Z,47.42
2022-10-31T03:16:09.336Z,50.83
2022-10-31T03:18:51.804Z,53.78
2022-10-31T03:21:48.704Z,49.90
2022-10-31T03:24:17.419Z,49.50
2022-10-31T03:26:51.087Z,53.00
2022-10-31T03:29:22.061Z,54.40
2022-10-31T03:32:18.411Z,52.45
2022-10-31T03:34:47.295Z,52.08
2022-10-31T03:37:19.242Z,48.43
2022-10-31T03:39:47.953Z,44.22
2022-10-31T03:42:27.120Z,43.95
2022-10-31T03:44:58.848Z,40.53
2022-10-31T03:47:28.477Z,47.05
2022-10-31T03:49:56.541Z,42.10
2022-10-31T03:52:30.989Z,43.40
2022-10-31T03:55:07.503Z,45.30
2022-10-31T03:57:40.585Z,42.33
2022-10-31T04:00:13.903Z,46.65
2022-10-31T04:03:00.207Z,44.43
2022-10-31T04:05:29.020Z,50.22
2022-10-31T04:08:01.591Z,49.22
2022-10-31T04:10:32.929Z,46.08
2022-10-31T04:13:12.833Z,52.80
2022-10-31T04:15:42.449Z,52.43
2022-10-31T04:18:10.091Z,48.42
2022-10-31T04:20:41.019Z,48.40
2022-10-31T04:23:25.376Z,53.00
2022-10-31T04:25:53.303Z,52.45
2022-10-31T04:28:21.236Z,54.57
2022-10-31T04:30:48.804Z,51.35
2022-10-31T04:33:16.518Z,44.75
2022-10-31T04:35:46.033Z,47.83
2022-10-31T04:38:13.574Z,49.00
2022-10-31T04:40:41.325Z,43.77
2022-10-31T04:43:10.178Z,44.60
2022-10-31T04:45:40.869Z,45.30
2022-10-31T04:48:09.618Z,45.72
2022-10-31T04:50:37.469Z,45.63
2022-10-31T04:53:05.011Z,40.33
2022-10-31T04:55:32.829Z,43.13
2022-10-31T04:58:01.986Z,42.17
2022-10-31T05:00:29.741Z,44.63
2022-10-31T05:02:58.838Z,45.35
2022-10-31T05:05:29.827Z,40.83
2022-10-31T05:07:57.887Z,45.50
2022-10-31T05:10:28.550Z,41.45
2022-10-31T05:13:00.768Z,40.80
2022-10-31T05:15:30.309Z,41.05
2022-10-31T05:18:03.450Z,43.63
2022-10-31T05:20:34.367Z,42.25
2022-10-31T05:23:03.487Z,43.85
2022-10-31T05:25:31.430Z,50.65
2022-10-31T05:27:59.726Z,49.65
2022-10-31T05:30:30.390Z,48.03
2022-10-31T05:32:59.098Z,51.03
2022-10-31T05:35:33.238Z,50.90
2022-10-31T05:38:01.780Z,49.78
2022-10-31T05:40:29.586Z,49.90
2022-10-31T05:42:59.728Z,50.87
2022-10-31T05:45:27.645Z,50.42
2022-10-31T05:48:01.585Z,46.35
2022-10-31T05:50:32.533Z,47.90
2022-10-31T05:53:02.626Z,51.70
2022-10-31T05:55:30.660Z,52.43
2022-10-31T05:57:59.254Z,53.10
2022-10-31T06:00:28.013Z,53.05
2022-10-31T06:03:01.241Z,53.70
2022-10-31T06:05:30.122Z,54.00
2022-10-31T06:07:58.330Z,51.70
2022-10-31T06:10:26.626Z,55.97
2022-10-31T06:12:54.647Z,57.88
2022-10-31T06:15:24.492Z,55.65
2022-10-31T06:18:05.356Z,52.33
2022-10-31T06:20:34.884Z,57.20
2022-10-31T06:23:03.216Z,54.47
2022-10-31T06:25:31.931Z,50.08
2022-10-31T06:27:59.581Z,52.05
2022-10-31T06:30:31.806Z,48.28
2022-10-31T06:33:06.316Z,48.37
2022-10-31T06:35:35.214Z,54.33
2022-10-31T06:38:03.414Z,58.92
2022-10-31T06:40:31.561Z,57.78
2022-10-31T06:43:01.596Z,55.88
2022-10-31T06:45:30.138Z,56.43
2022-10-31T06:50:54.682Z,59.35
2022-10-31T06:53:24.642Z,61.67
2022-10-31T06:55:52.648Z,64.53
2022-10-31T06:58:20.469Z,61.37
2022-10-31T07:00:48.749Z,57.88
2022-10-31T07:03:17.758Z,62.15
2022-10-31T07:05:45.650Z,61.08
2022-10-31T07:08:14.662Z,67.87
2022-10-31T07:10:43.941Z,63.33
2022-10-31T07:13:15.382Z,64.55
2022-10-31T07:15:44.868Z,49.28
2022-10-31T07:18:13.502Z,52.40
2022-10-31T07:20:41.277Z,61.65
2022-10-31T07:23:11.172Z,54.70
2022-10-31T07:25:39.687Z,60.08
2022-10-31T07:28:07.842Z,58.58
2022-10-31T07:30:35.625Z,55.15
2022-10-31T07:33:03.217Z,62.33
2022-10-31T07:35:33.433Z,59.00
2022-10-31T07:38:09.630Z,65.85
2022-10-31T07:40:37.213Z,54.08
2022-10-31T07:43:07.557Z,61.33
2022-10-31T07:45:40.646Z,52.10
2022-10-31T07:48:10.756Z,56.17
2022-10-31T07:50:45.662Z,56.58
2022-10-31T07:53:17.870Z,64.15
2022-10-31T07:55:45.858Z,56.17
2022-10-31T07:58:16.060Z,50.95
2022-10-31T08:00:45.733Z,52.97
2022-10-31T08:03:16.757Z,55.90
2022-10-31T08:05:48.218Z,54.60
2022-10-31T08:08:17.715Z,49.50
2022-10-31T08:10:45.428Z,62.90
2022-10-31T08:13:14.558Z,55.63
2022-10-31T08:15:43.170Z,52.72
2022-10-31T08:18:14.057Z,51.30
2022-10-31T08:20:45.453Z,47.30
2022-10-31T08:23:14.471Z,46.00
2022-10-31T08:25:43.318Z,42.63
2022-10-31T08:28:12.672Z,40.70
2022-10-31T08:30:42.253Z,48.05
2022-10-31T08:33:17.995Z,32.63
2022-10-31T08:35:52.765Z,38.95
2022-10-31T08:38:23.034Z,32.17
2022-10-31T08:40:50.975Z,37.25
2022-10-31T08:43:19.459Z,32.85
2022-10-31T08:45:50.171Z,36.95
2022-10-31T08:48:19.328Z,38.17
2022-10-31T08:50:47.839Z,43.67
2022-10-31T08:53:20.170Z,41.80
2022-10-31T08:55:49.312Z,45.28
2022-10-31T08:58:20.110Z,44.80
2022-10-31T09:00:50.594Z,42.08
2022-10-31T09:03:23.784Z,41.90
2022-10-31T09:05:55.267Z,39.70
2022-10-31T09:08:23.159Z,42.20
2022-10-31T09:10:51.832Z,34.42
2022-10-31T09:13:21.452Z,41.60
2022-10-31T09:15:50.548Z,40.97
2022-10-31T09:18:22.425Z,44.10
2022-10-31T09:20:50.927Z,42.60
2022-10-31T09:23:21.553Z,40.30
2022-10-31T09:25:51.161Z,39.58
2022-10-31T09:28:25.273Z,39.00
2022-10-31T09:30:54.197Z,42.67
2022-10-31T09:33:22.621Z,40.65
2022-10-31T09:35:52.274Z,44.92
2022-10-31T09:38:21.893Z,40.83
2022-10-31T09:41:16.211Z,43.73
2022-10-31T09:43:59.666Z,42.65
2022-10-31T09:46:36.437Z,39.92
2022-10-31T09:49:25.894Z,46.13
2022-10-31T09:52:04.910Z,47.55
2022-10-31T09:54:45.113Z,44.20
2022-10-31T09:57:16.057Z,38.38
2022-10-31T09:59:45.652Z,46.58
2022-10-31T10:02:22.897Z,41.83
2022-10-31T10:05:02.219Z,38.70
2022-10-31T10:07:33.373Z,32.60
2022-10-31T10:10:18.402Z,39.95
2022-10-31T10:13:10.967Z,35.40
2022-10-31T10:16:20.402Z,35.85
2022-10-31T10:19:02.885Z,36.40
2022-10-31T10:21:51.865Z,39.70
2022-10-31T10:24:34.943Z,37.85
2022-10-31T10:27:27.543Z,45.12
2022-10-31T10:30:07.422Z,40.78
2022-10-31T10:32:52.182Z,44.58
2022-10-31T10:35:35.885Z,39.70
2022-10-31T10:38:10.694Z,46.30
2022-10-31T10:40:38.336Z,50.85
2022-10-31T10:43:24.150Z,41.53
2022-10-31T10:46:16.200Z,41.88
2022-10-31T10:49:05.821Z,43.20
2022-10-31T10:52:12.804Z,42.65
2022-10-31T10:54:55.580Z,44.53
2022-10-31T10:57:30.074Z,39.78
2022-10-31T10:59:59.036Z,42.00
2022-10-31T11:02:27.809Z,37.17
2022-10-31T11:04:57.920Z,36.95
2022-10-31T11:07:25.651Z,35.83
2022-10-31T11:10:04.449Z,35.85
2022-10-31T11:12:34.467Z,43.33
2022-10-31T11:15:08.588Z,37.40
2022-10-31T11:17:40.793Z,34.63
2022-10-31T11:20:17.882Z,36.03
2022-10-31T11:22:48.635Z,37.38
2022-10-31T11:25:26.911Z,36.03
2022-10-31T11:28:01.862Z,35.83
2022-10-31T11:30:30.101Z,34.88
2022-10-31T11:32:58.268Z,34.08
2022-10-31T11:35:26.719Z,36.78
2022-10-31T11:37:56.155Z,31.70
2022-10-31T11:40:27.828Z,35.40
2022-10-31T11:42:58.303Z,35.85
2022-10-31T11:45:34.887Z,37.80
2022-10-31T11:48:17.348Z,34.30
2022-10-31T11:50:50.958Z,42.42
2022-10-31T11:53:20.626Z,38.60
2022-10-31T11:55:48.855Z,37.85
2022-10-31T11:58:25.053Z,34.72
2022-10-31T12:00:55.075Z,35.13
2022-10-31T12:03:41.614Z,40.72
2022-10-31T12:06:22.209Z,56.57
2022-10-31T12:08:50.279Z,48.60
2022-10-31T12:11:31.102Z,37.63
2022-10-31T12:14:18.910Z,38.95
2022-10-31T12:16:57.607Z,36.92
2022-10-31T12:19:37.606Z,41.97
2022-10-31T12:22:15.338Z,37.70
2022-10-31T12:25:00.410Z,34.15
2022-10-31T12:27:37.314Z,35.17
2022-10-31T12:30:21.559Z,35.22
2022-10-31T12:33:20.040Z,39.17
2022-10-31T12:36:21.618Z,36.53
2022-10-31T12:39:03.071Z,42.50
2022-10-31T12:41:52.678Z,37.22
2022-10-31T12:44:38.816Z,36.58
2022-10-31T12:47:21.519Z,38.20
2022-10-31T12:49:57.953Z,33.90
2022-10-31T12:52:37.614Z,38.63
2022-10-31T12:55:26.119Z,33.75
2022-10-31T12:57:58.387Z,35.60
2022-10-31T13:00:30.387Z,36.80
2022-10-31T13:03:05.028Z,38.00
2022-10-31T13:05:42.172Z,44.85
2022-10-31T13:08:20.917Z,40.45
2022-10-31T13:11:06.429Z,40.55
2022-10-31T13:13:39.125Z,40.70
2022-10-31T13:16:22.016Z,38.60
2022-10-31T13:18:55.687Z,38.40
2022-10-31T13:21:38.787Z,38.55
2022-10-31T13:24:17.262Z,41.78
2022-10-31T13:26:55.808Z,55.73
2022-10-31T13:29:44.342Z,48.38
2022-10-31T13:32:11.908Z,54.17
2022-10-31T13:34:56.153Z,44.95
2022-10-31T13:37:35.812Z,34.17
2022-10-31T13:40:03.756Z,33.83
2022-10-31T13:42:41.793Z,37.33
2022-10-31T13:45:18.721Z,36.03
2022-10-31T13:48:01.214Z,36.50
2022-10-31T13:50:32.534Z,29.12
2022-10-31T13:53:18.351Z,34.93
2022-10-31T13:55:49.249Z,31.90
2022-10-31T13:58:30.839Z,34.88
2022-10-31T14:01:16.112Z,31.98
2022-10-31T14:04:06.080Z,28.83
2022-10-31T14:06:43.973Z,29.93
2022-10-31T14:09:24.736Z,35.80
2022-10-31T14:11:53.106Z,28.40
2022-10-31T14:14:22.208Z,32.67
2022-10-31T14:16:56.985Z,32.75
2022-10-31T14:19:25.751Z,61.50
2022-10-31T14:21:53.298Z,42.05
2022-10-31T14:24:23.714Z,35.97
2022-10-31T14:27:03.468Z,35.80
2022-10-31T14:29:32.840Z,37.70
2022-10-31T14:32:13.766Z,35.27
2022-10-31T14:34:43.537Z,35.13
2022-10-31T14:37:40.787Z,34.10
2022-10-31T14:41:02.717Z,38.63
2022-10-31T14:44:06.289Z,35.53
2022-10-31T14:46:58.081Z,28.83
2022-10-31T14:49:44.245Z,31.27
2022-10-31T14:52:14.213Z,29.85
2022-10-31T14:54:46.520Z,31.17
2022-10-31T14:57:18.088Z,34.38
2022-10-31T14:59:50.375Z,31.47
2022-10-31T15:02:24.246Z,34.88
2022-10-31T15:04:53.979Z,40.58
2022-10-31T15:07:25.100Z,31.95
2022-10-31T15:10:01.516Z,33.83
2022-10-31T15:12:31.610Z,29.97
2022-10-31T15:15:12.427Z,35.33
2022-10-31T15:17:45.186Z,35.65
2022-10-31T15:20:13.601Z,37.53
2022-10-31T15:22:41.160Z,34.30
2022-10-31T15:25:18.487Z,33.93
2022-10-31T15:27:47.617Z,38.75
2022-10-31T15:30:24.909Z,39.58
2022-10-31T15:33:01.117Z,38.40
2022-10-31T15:35:31.885Z,33.90
2022-10-31T15:38:01.764Z,39.63
2022-10-31T15:40:29.674Z,56.17
2022-10-31T15:43:03.321Z,44.65
2022-10-31T15:45:31.603Z,38.08
2022-10-31T15:48:02.536Z,32.25
2022-10-31T15:50:38.507Z,36.27
2022-10-31T15:53:07.781Z,36.47
2022-10-31T15:55:39.416Z,32.67
2022-10-31T15:58:14.766Z,37.63
2022-10-31T16:00:42.642Z,39.22
2022-10-31T16:03:13.316Z,39.43
2022-10-31T16:05:45.448Z,39.45
2022-10-31T16:08:31.536Z,35.63
2022-10-31T16:11:08.446Z,48.10
2022-10-31T16:13:39.419Z,40.00
2022-10-31T16:16:34.079Z,44.63
2022-10-31T16:19:04.916Z,36.90
2022-10-31T16:21:35.214Z,32.55
2022-10-31T16:24:16.606Z,34.70
2022-10-31T16:26:52.591Z,46.35
2022-10-31T16:29:49.694Z,49.60
2022-10-31T16:32:31.582Z,42.53
2022-10-31T16:35:29.667Z,36.78
2022-10-31T16:37:57.113Z,41.95
2022-10-31T16:40:25.277Z,38.92
2022-10-31T16:42:53.003Z,42.80
2022-10-31T16:45:28.100Z,52.40
2022-10-31T16:48:03.776Z,47.67
2022-10-31T16:50:31.578Z,42.03
2022-10-31T16:53:15.171Z,36.85
2022-10-31T16:55:45.887Z,38.30
2022-10-31T16:58:20.232Z,35.60
2022-10-31T17:00:47.815Z,39.50
2022-10-31T17:03:15.661Z,39.45
2022-10-31T17:05:51.393Z,38.40
2022-10-31T17:08:19.125Z,41.77
2022-10-31T17:10:48.455Z,39.25
2022-10-31T17:13:21.786Z,40.17
2022-10-31T17:15:52.373Z,37.10
2022-10-31T17:18:24.442Z,40.90
2022-10-31T17:21:00.038Z,41.43
2022-10-31T17:23:28.678Z,42.97
2022-10-31T17:25:57.153Z,41.63
2022-10-31T17:28:26.637Z,43.05
2022-10-31T17:30:55.656Z,43.30
2022-10-31T17:33:23.411Z,41.63
2022-10-31T17:35:51.755Z,45.67
2022-10-31T17:38:19.232Z,42.17
2022-10-31T17:43:15.473Z,38.03
2022-10-31T17:45:43.131Z,41.10
2022-10-31T17:48:13.908Z,44.25
2022-10-31T17:50:41.394Z,44.17
2022-10-31T17:53:09.065Z,41.83
2022-10-31T17:55:37.730Z,44.08
2022-10-31T17:58:05.704Z,38.30
2022-10-31T18:00:33.671Z,42.83
2022-10-31T18:03:03.897Z,41.95
2022-10-31T18:05:32.058Z,42.25
2022-10-31T18:08:03.814Z,42.67
2022-10-31T18:10:32.178Z,37.63
2022-10-31T18:13:00.325Z,40.45
2022-10-31T18:15:28.378Z,38.53
2022-10-31T18:17:56.531Z,42.50
2022-10-31T18:20:24.296Z,37.75
2022-10-31T18:22:51.979Z,38.90
2022-10-31T18:25:19.683Z,35.30
2022-10-31T18:27:47.338Z,44.92
2022-10-31T18:30:15.044Z,31.65
2022-10-31T18:32:42.985Z,33.20
2022-10-31T18:35:10.791Z,35.67
2022-10-31T18:37:38.287Z,36.45
2022-10-31T18:40:06.803Z,35.78
2022-10-31T18:42:35.602Z,38.20
2022-10-31T18:45:17.099Z,34.45
2022-10-31T18:47:51.860Z,31.57
2022-10-31T18:50:19.892Z,33.67
2022-10-31T18:52:47.406Z,36.88
2022-10-31T18:55:15.186Z,33.17
2022-10-31T18:57:42.810Z,31.73
2022-10-31T19:00:10.960Z,35.90
2022-10-31T19:02:39.006Z,35.03
2022-10-31T19:05:06.746Z,35.38
2022-10-31T19:07:34.325Z,31.77
2022-10-31T19:10:02.273Z,37.38
2022-10-31T19:12:32.257Z,36.07
2022-10-31T19:14:59.748Z,35.20
2022-10-31T19:17:27.616Z,35.10
2022-10-31T19:19:55.359Z,36.15
2022-10-31T19:22:23.052Z,37.33
2022-10-31T19:24:51.003Z,41.33
2022-10-31T19:27:18.887Z,39.00
2022-10-31T19:29:46.385Z,35.47
2022-10-31T19:32:14.431Z,38.22
2022-10-31T19:34:41.927Z,36.38
2022-10-31T19:37:09.424Z,37.33
2022-10-31T19:39:42.759Z,38.30
2022-10-31T19:42:12.178Z,37.58
2022-10-31T19:44:40.178Z,36.25
2022-10-31T19:47:07.878Z,39.67
2022-10-31T19:49:36.108Z,38.37
2022-10-31T19:52:04.187Z,36.78
2022-10-31T19:54:32.217Z,38.65
2022-10-31T19:56:59.947Z,41.35
2022-10-31T19:59:28.102Z,43.83
2022-10-31T20:01:55.608Z,55.47
2022-10-31T20:04:23.683Z,41.83
2022-10-31T20:06:51.246Z,43.47
2022-10-31T20:09:19.146Z,47.60
2022-10-31T20:11:47.215Z,47.72
2022-10-31T20:14:17.068Z,40.47
2022-10-31T20:16:45.197Z,44.53
2022-10-31T20:19:13.088Z,44.88
2022-10-31T20:21:41.116Z,37.15
2022-10-31T20:24:09.849Z,47.62
2022-10-31T20:26:39.641Z,44.57
2022-10-31T20:29:07.335Z,47.88
2022-10-31T20:31:36.496Z,51.33
2022-10-31T20:34:04.625Z,47.30
2022-10-31T20:36:32.395Z,42.30
2022-10-31T20:39:00.412Z,49.40
2022-10-31T20:41:28.550Z,46.20
2022-10-31T20:43:56.156Z,47.53
2022-10-31T20:46:26.253Z,48.47
2022-10-31T20:48:54.427Z,41.72
2022-10-31T20:51:25.137Z,40.80
2022-10-31T20:53:54.230Z,39.85
2022-10-31T20:56:26.052Z,44.30
2022-10-31T20:58:57.180Z,45.38
2022-10-31T21:01:30.311Z,49.45
2022-10-31T21:03:59.357Z,46.60
2022-10-31T21:06:28.446Z,47.45
2022-10-31T21:08:56.604Z,45.83
2022-10-31T21:11:26.181Z,51.42
2022-10-31T21:13:54.336Z,49.80
2022-10-31T21:16:31.100Z,42.87
2022-10-31T21:19:00.172Z,47.85
2022-10-31T21:21:32.609Z,49.40
2022-10-31T21:24:03.916Z,46.08
2022-10-31T21:26:34.734Z,46.65
2022-10-31T21:29:04.058Z,46.73
2022-10-31T21:31:31.939Z,52.17
2022-10-31T21:33:59.411Z,49.72
2022-10-31T21:36:27.294Z,48.13
2022-10-31T21:38:55.442Z,52.58
2022-10-31T21:41:23.975Z,50.13
2022-10-31T21:43:54.322Z,51.63
2022-10-31T21:46:30.223Z,55.10
2022-10-31T21:48:59.730Z,51.55
2022-10-31T21:51:29.317Z,52.92
2022-10-31T21:54:15.733Z,51.30
2022-10-31T21:56:43.692Z,50.20
2022-10-31T21:59:11.616Z,46.60
2022-10-31T22:01:39.547Z,43.67
2022-10-31T22:04:07.405Z,43.05
2022-10-31T22:06:35.584Z,42.17
2022-10-31T22:09:05.005Z,43.40
2022-10-31T22:11:32.965Z,33.53
2022-10-31T22:14:01.014Z,35.08
2022-10-31T22:16:29.701Z,32.13
2022-10-31T22:19:00.078Z,33.13
2022-10-31T22:21:28.636Z,27.70
2022-10-31T22:24:01.808Z,31.12
2022-10-31T22:26:32.880Z,28.67
2022-10-31T22:29:02.657Z,36.95
2022-10-31T22:31:31.433Z,29.90
2022-10-31T22:33:59.929Z,35.03
2022-10-31T22:36:29.434Z,37.00
2022-10-31T22:38:57.946Z,35.20
2022-10-31T22:41:28.778Z,34.05
2022-10-31T22:43:56.874Z,33.30
2022-10-31T22:46:26.650Z,30.27
2022-10-31T22:48:56.727Z,30.83
2022-10-31T22:51:26.617Z,25.05
2022-10-31T22:53:57.780Z,24.10
2022-10-31T22:56:27.725Z,27.10
2022-10-31T22:58:55.650Z,31.27
2022-10-31T23:01:26.095Z,24.42
2022-10-31T23:03:53.876Z,24.50
2022-10-31T23:06:24.163Z,26.35
2022-10-31T23:08:52.784Z,25.17
2022-10-31T23:11:24.346Z,32.75
2022-10-31T23:14:10.604Z,30.70
2022-10-31T23:16:41.094Z,33.40
2022-10-31T23:19:10.265Z,25.70
2022-10-31T23:21:59.429Z,33.80
2022-10-31T23:24:44.275Z,28.42
2022-10-31T23:27:23.155Z,28.35
2022-10-31T23:29:52.693Z,27.25
2022-10-31T23:32:30.764Z,28.17
2022-10-31T23:35:00.555Z,29.27
2022-10-31T23:37:30.346Z,27.77
2022-10-31T23:40:16.685Z,27.25
2022-10-31T23:42:45.231Z,29.50
2022-10-31T23:45:12.922Z,32.70
2022-10-31T23:47:43.298Z,32.77
2022-10-31T23:50:11.407Z,26.83
2022-10-31T23:52:39.131Z,29.37
2022-10-31T23:55:07.129Z,28.92
2022-10-31T23:57:34.587Z,28.50
